Home > Products > Valid Products > TAF

000
FTUS45 KRIW 291100
TAFRKS
TAF
KRKS 291124Z 2912/3012 26007KT P6SM SKC
     FM292100 26013KT P6SM FEW100
     FM300500 24008KT P6SM SKC=



000
FTUS45 KRIW 291100
TAFBPI
TAF
KBPI 291124Z 2912/3012 35009KT P6SM SKC
     FM291600 VRB06KT P6SM SKC
     FM292100 30010KT P6SM SCT200
     FM300200 35007KT P6SM FEW120 SCT200=



000
FTUS45 KRIW 291100
TAFWRL
TAF
KWRL 291124Z 2912/3012 VRB05KT P6SM SKC
     FM292100 13007KT P6SM SCT120 BKN200
     FM300800 17006KT P6SM FEW120=



000
FTUS45 KRIW 291100
TAFCPR
TAF
KCPR 291124Z 2912/3012 VRB06KT P6SM SKC
     FM291600 25008KT P6SM SKC
     FM291900 25014KT P6SM FEW250
     FM300200 23008KT P6SM FEW110 SCT200=



000
FTUS45 KRIW 291100
TAFJAC
TAF
KJAC 291124Z 2912/3012 VRB06KT P6SM SCT060
     FM291900 19010KT P6SM FEW100 BKN200
     FM300300 36006KT P6SM SCT090
      AMD LTD TO CLD VIS AND WIND=



000
FTUS45 KRIW 291100
TAFLND
TAF
KLND 291124Z 2912/3012 VRB05KT P6SM SKC
     FM292300 24008KT P6SM SCT200=



000
FTUS45 KRIW 291100
TAFLND
TAF
KLND 291124Z 2912/3012 VRB05KT P6SM SKC
     FM292300 24008KT P6SM SCT200=



000
FTUS45 KRIW 291100
TAFRIW
TAF
KRIW 291124Z 2912/3012 26006KT P6SM SKC
     FM291600 21007KT P6SM SKC
     FM300200 30011KT P6SM FEW120 SCT200
     FM301000 VRB05KT P6SM SKC=



000
FTUS45 KRIW 291100
TAFRKS
TAF
KRKS 291124Z 2912/3012 26007KT P6SM SKC
     FM292100 26013KT P6SM FEW100
     FM300500 24008KT P6SM SKC=



000
FTUS45 KRIW 291100
TAFRIW
TAF
KRIW 291124Z 2912/3012 26006KT P6SM SKC
     FM291600 21007KT P6SM SKC
     FM300200 30011KT P6SM FEW120 SCT200
     FM301000 VRB05KT P6SM SKC=



000
FTUS45 KRIW 291100
TAFCOD
TAF
KCOD 291124Z 2912/3012 VRB05KT P6SM SKC
     FM291600 15009KT P6SM FEW120 BKN200
     FM300100 22007KT P6SM SCT090
      AMD LTD TO CLD VIS AND WIND=



000
FTUS45 KRIW 291100
TAFWRL
TAF
KWRL 291124Z 2912/3012 VRB05KT P6SM SKC
     FM292100 13007KT P6SM SCT120 BKN200
     FM300800 17006KT P6SM FEW120=



000
FTUS45 KRIW 291100
TAFCPR
TAF
KCPR 291124Z 2912/3012 VRB06KT P6SM SKC
     FM291600 25008KT P6SM SKC
     FM291900 25014KT P6SM FEW250
     FM300200 23008KT P6SM FEW110 SCT200=



000
FTUS45 KRIW 291100
TAFCOD
TAF
KCOD 291124Z 2912/3012 VRB05KT P6SM SKC
     FM291600 15009KT P6SM FEW120 BKN200
     FM300100 22007KT P6SM SCT090
      AMD LTD TO CLD VIS AND WIND=



000
FTUS45 KRIW 291100
TAFBPI
TAF
KBPI 291124Z 2912/3012 35009KT P6SM SKC
     FM291600 VRB06KT P6SM SKC
     FM292100 30010KT P6SM SCT200
     FM300200 35007KT P6SM FEW120 SCT200=



000
FTUS45 KRIW 291100
TAFJAC
TAF
KJAC 291124Z 2912/3012 VRB06KT P6SM SCT060
     FM291900 19010KT P6SM FEW100 BKN200
     FM300300 36006KT P6SM SCT090
      AMD LTD TO CLD VIS AND WIND=



000
FTUS45 KRIW 290500
TAFWRL
TAF
KWRL 290529Z 2906/3006 35009KT P6SM FEW110
     FM290800 VRB05KT P6SM SKC
     FM292100 13007KT P6SM SCT120 BKN200=



000
FTUS45 KRIW 290500
TAFLND
TAF
KLND 290529Z 2906/3006 29012G18KT P6SM FEW090
     FM290800 VRB05KT P6SM SKC
     FM292300 24008KT P6SM SCT200=



000
FTUS45 KRIW 290500
TAFCPR
TAF
KCPR 290529Z 2906/3006 32010KT P6SM FEW035 SCT090
     FM291000 25008KT P6SM SKC
     FM291900 25014KT P6SM FEW250
     FM300200 23008KT P6SM FEW110 SCT200=



000
FTUS45 KRIW 290500
TAFJAC
TAF
KJAC 290529Z 2906/3006 VRB06KT P6SM SCT060
     FM291900 19010KT P6SM FEW100 BKN200
     FM300300 36006KT P6SM SCT090
      AMD LTD TO CLD VIS AND WIND=



000
FTUS45 KRIW 290500
TAFCOD
TAF
KCOD 290529Z 2906/3006 29010KT P6SM SCT110
     FM290800 24007KT P6SM SKC
     FM291600 15009KT P6SM FEW120 BKN200
     FM300100 22007KT P6SM SCT090
      AMD LTD TO CLD VIS AND WIND=



000
FTUS45 KRIW 290500
TAFBPI
TAF
KBPI 290529Z 2906/3006 35009KT P6SM SKC
     FM291000 VRB05KT P6SM SKC
     FM292100 30010KT P6SM SCT200
     FM300200 35007KT P6SM FEW120 SCT200=



000
FTUS45 KRIW 290500
TAFRKS
TAF
KRKS 290529Z 2906/3006 24007KT P6SM SKC
     FM292100 26013KT P6SM FEW100
     FM300500 24008KT P6SM SKC=



000
FTUS45 KRIW 290500
TAFRIW
TAF
KRIW 290529Z 2906/3006 34016G24KT P6SM FEW090
     FM290800 28010KT P6SM SKC
     FM291400 21007KT P6SM SKC
     FM300200 30011KT P6SM FEW120 SCT200=



000
FTUS45 KRIW 290500
TAFWRL
TAF
KWRL 290529Z 2906/3006 35009KT P6SM FEW110
     FM290800 VRB05KT P6SM SKC
     FM292100 13007KT P6SM SCT120 BKN200=



000
FTUS45 KRIW 290500
TAFLND
TAF
KLND 290529Z 2906/3006 29012G18KT P6SM FEW090
     FM290800 VRB05KT P6SM SKC
     FM292300 24008KT P6SM SCT200=



000
FTUS45 KRIW 290500
TAFCPR
TAF
KCPR 290529Z 2906/3006 32010KT P6SM FEW035 SCT090
     FM291000 25008KT P6SM SKC
     FM291900 25014KT P6SM FEW250
     FM300200 23008KT P6SM FEW110 SCT200=



000
FTUS45 KRIW 290500
TAFRKS
TAF
KRKS 290529Z 2906/3006 24007KT P6SM SKC
     FM292100 26013KT P6SM FEW100
     FM300500 24008KT P6SM SKC=



000
FTUS45 KRIW 290500
TAFCOD
TAF
KCOD 290529Z 2906/3006 29010KT P6SM SCT110
     FM290800 24007KT P6SM SKC
     FM291600 15009KT P6SM FEW120 BKN200
     FM300100 22007KT P6SM SCT090
      AMD LTD TO CLD VIS AND WIND=



000
FTUS45 KRIW 290500
TAFBPI
TAF
KBPI 290529Z 2906/3006 35009KT P6SM SKC
     FM291000 VRB05KT P6SM SKC
     FM292100 30010KT P6SM SCT200
     FM300200 35007KT P6SM FEW120 SCT200=



000
FTUS45 KRIW 290500
TAFJAC
TAF
KJAC 290529Z 2906/3006 VRB06KT P6SM SCT060
     FM291900 19010KT P6SM FEW100 BKN200
     FM300300 36006KT P6SM SCT090
      AMD LTD TO CLD VIS AND WIND=



000
FTUS45 KRIW 290500
TAFRIW
TAF
KRIW 290529Z 2906/3006 34016G24KT P6SM FEW090
     FM290800 28010KT P6SM SKC
     FM291400 21007KT P6SM SKC
     FM300200 30011KT P6SM FEW120 SCT200=



000
FTUS45 KRIW 282300
TAFLND
TAF
KLND 282323Z 2900/2924 28018G28KT P6SM SKC
     FM290500 35010KT P6SM SKC
     FM290800 VRB05KT P6SM SKC=



000
FTUS45 KRIW 282300
TAFRIW
TAF
KRIW 282323Z 2900/2924 31030G40KT P6SM SKC
     FM290500 34011KT P6SM SKC
     FM290800 VRB05KT P6SM SKC
     FM291600 12010KT P6SM SKC=



000
FTUS45 KRIW 282300
TAFRKS
TAF
KRKS 282323Z 2900/2924 27029G39KT P6SM FEW090 SCT150
     FM290200 28020G28KT P6SM FEW150
     FM290700 25007KT P6SM SKC
     FM292100 26012KT P6SM SKC=



000
FTUS45 KRIW 282300
TAFWRL
TAF
KWRL 282323Z 2900/2924 30023G33KT P6SM FEW110
     FM290200 34014G20KT P6SM FEW120
     FM290400 35009KT P6SM SKC
     FM290700 VRB05KT P6SM SKC=



000
FTUS45 KRIW 282300
TAFCPR
TAF
KCPR 282323Z 2900/2924 27026G36KT P6SM FEW120 SCT150
     FM290200 28018G28KT P6SM SKC
     FM290500 34010KT P6SM SKC
     FM290800 24009KT P6SM SKC
     FM291900 24014KT P6SM FEW250=



000
FTUS45 KRIW 282300
TAFCOD
TAF
KCOD 282323Z 2900/2924 27013G25KT P6SM VCSH SCT040 BKN060
     FM290100 28020G28KT P6SM SCT080
     FM290700 24007KT P6SM SKC
     FM291600 16011KT P6SM SKC
      AMD LTD TO CLD VIS AND WIND=



000
FTUS45 KRIW 282300
TAFBPI
TAF
KBPI 282323Z 2900/2924 30020G30KT P6SM SKC
     FM290230 34010KT P6SM SKC
     FM290700 VRB05KT P6SM SKC
     FM292100 27010KT P6SM SCT200=



000
FTUS45 KRIW 282300
TAFJAC
TAF
KJAC 282323Z 2900/2924 21020G28KT P6SM VCSH SCT070
     FM290100 21011KT P6SM FEW120
     FM290500 36006KT P6SM SKC
     FM291700 23010KT P6SM FEW250
      AMD LTD TO CLD VIS AND WIND=



000
FTUS45 KRIW 282100 CCA
TAFCOD
TAF COR
KCOD 282145Z 2822/2918 25015G25KT P6SM FEW110
     FM290200 24010KT P6SM SKC
     FM290800 24007KT P6SM SKC
     FM291600 16011KT P6SM SKC
      AMD LTD TO CLD VIS AND WIND=



000
FTUS45 KRIW 282100 CCA
TAFCOD
TAF COR
KCOD 282145Z 2822/2918 25015G25KT P6SM FEW110
     FM290200 24010KT P6SM SKC
     FM290800 24007KT P6SM SKC
     FM291600 16011KT P6SM SKC
      AMD LTD TO CLD VIS AND WIND=



000
FTUS45 KRIW 282100 AAB
TAFCOD
TAF AMD
KCOD 282143Z 2822/2918 25015G35KT P6SM FEW110
     FM290200 24010KT P6SM SKC
     FM290800 24007KT P6SM SKC
     FM291600 16011KT P6SM SKC
      AMD LTD TO CLD VIS AND WIND=



000
FTUS45 KRIW 282100 AAB
TAFLND
TAF AMD
KLND 282117Z 2821/2918 24032G45KT P6SM FEW120
     FM290000 28017G27KT P6SM SKC
     FM290500 35010KT P6SM SKC
     FM290800 VRB05KT P6SM SKC=



000
FTUS45 KRIW 282100 AAB
TAFWRL
TAF AMD
KWRL 282114Z 2821/2918 23025G37KT P6SM SCT110
     FM290200 34011KT P6SM FEW120
     FM290700 VRB05KT P6SM SKC=



000
FTUS45 KRIW 282000 AAA
TAFCOD
TAF AMD
KCOD 282044Z 2821/2918 24022G34KT P6SM FEW110
     FM290200 24010KT P6SM SKC
     FM290800 24007KT P6SM SKC
     FM291600 16011KT P6SM SKC
      AMD LTD TO CLD VIS AND WIND=



000
FTUS45 KRIW 282000 AAA
TAFCOD
TAF AMD
KCOD 282044Z 2821/2918 24022G34KT P6SM FEW110
     FM290200 24010KT P6SM SKC
     FM290800 24007KT P6SM SKC
     FM291600 16011KT P6SM SKC
      AMD LTD TO CLD VIS AND WIND=



000
FTUS45 KRIW 282000 AAA
TAFLND
TAF AMD
KLND 282010Z 2820/2918 24026G40KT P6SM FEW120
     FM290000 28017G27KT P6SM SKC
     FM290500 35010KT P6SM SKC
     FM290800 VRB05KT P6SM SKC=



000
FTUS45 KRIW 282000 AAA
TAFLND
TAF AMD
KLND 282010Z 2820/2918 24026G40KT P6SM FEW120
     FM290000 28017G27KT P6SM SKC
     FM290500 35010KT P6SM SKC
     FM290800 VRB05KT P6SM SKC=



000
FTUS45 KRIW 282000 AAB
TAFBPI
TAF AMD
KBPI 282009Z 2820/2918 28031G42KT P6SM SKC
     FM290230 34010KT P6SM SKC
     FM290700 VRB05KT P6SM SKC=



000
FTUS45 KRIW 282000 AAB
TAFBPI
TAF AMD
KBPI 282009Z 2820/2918 28031G42KT P6SM SKC
     FM290230 34010KT P6SM SKC
     FM290700 VRB05KT P6SM SKC=



000
FTUS45 KRIW 281800 AAA
TAFWRL
TAF AMD
KWRL 281808Z 2818/2918 23018G28KT P6SM SCT110
     FM290200 34011KT P6SM FEW120
     FM290700 VRB05KT P6SM SKC=



000
FTUS45 KRIW 281800 AAA
TAFWRL
TAF AMD
KWRL 281808Z 2818/2918 23018G28KT P6SM SCT110
     FM290200 34011KT P6SM FEW120
     FM290700 VRB05KT P6SM SKC=



000
FTUS45 KRIW 281800 AAA
TAFJAC
TAF AMD
KJAC 281806Z 2818/2918 20015KT P6SM FEW080
     FM281900 22020G28KT P6SM FEW080 SCT120
     FM290100 21011KT P6SM FEW120
     FM290500 36006KT P6SM SKC
     FM291700 23009KT P6SM SKC
      AMD LTD TO CLD VIS AND WIND=



000
FTUS45 KRIW 281800 AAA
TAFJAC
TAF AMD
KJAC 281806Z 2818/2918 20015KT P6SM FEW080
     FM281900 22020G28KT P6SM FEW080 SCT120
     FM290100 21011KT P6SM FEW120
     FM290500 36006KT P6SM SKC
     FM291700 23009KT P6SM SKC
      AMD LTD TO CLD VIS AND WIND=



000
FTUS45 KRIW 281800 AAA
TAFBPI
TAF AMD
KBPI 281805Z 2818/2918 26021G30KT P6SM FEW110
     FM282100 30021G31KT P6SM FEW150
     FM290230 34010KT P6SM SKC
     FM290700 VRB05KT P6SM SKC=



000
FTUS45 KRIW 281800 AAA
TAFBPI
TAF AMD
KBPI 281805Z 2818/2918 26021G30KT P6SM FEW110
     FM282100 30021G31KT P6SM FEW150
     FM290230 34010KT P6SM SKC
     FM290700 VRB05KT P6SM SKC=



000
FTUS45 KRIW 281700
TAFRIW
TAF
KRIW 281720Z 2818/2918 28010KT P6SM SKC
     FM281900 28023G33KT P6SM FEW120
     FM282300 31032G42KT P6SM FEW200
     FM290500 34011KT P6SM SKC
     FM290800 VRB05KT P6SM SKC=



000
FTUS45 KRIW 281700
TAFRKS
TAF
KRKS 281720Z 2818/2918 26011KT P6SM SKC
     FM281900 26017G27KT P6SM FEW120
     FM282100 27029G39KT P6SM FEW150
     FM290200 28020G28KT P6SM SKC
     FM290700 25008KT P6SM SKC=



000
FTUS45 KRIW 281700
TAFJAC
TAF
KJAC 281720Z 2818/2918 20015G20KT P6SM FEW120
     FM281900 22020G28KT P6SM FEW080 SCT120
     FM290100 21011KT P6SM FEW120
     FM290500 36006KT P6SM SKC
     FM291700 23009KT P6SM SKC
      AMD LTD TO CLD VIS AND WIND=



000
FTUS45 KRIW 281700
TAFCPR
TAF
KCPR 281720Z 2818/2918 22025G32KT P6SM SKC
     FM281900 25026G36KT P6SM FEW120
     FM282300 28024G34KT P6SM SCT110
     FM290500 34010KT P6SM SKC
     FM290800 24009KT P6SM SKC=



000
FTUS45 KRIW 281700
TAFLND
TAF
KLND 281720Z 2818/2918 29015G25KT P6SM SKC
     FM281900 27026G36KT P6SM FEW120
     FM290000 28017G27KT P6SM SKC
     FM290500 35010KT P6SM SKC
     FM290800 VRB05KT P6SM SKC=



000
FTUS45 KRIW 281700
TAFRIW
TAF
KRIW 281720Z 2818/2918 28010KT P6SM SKC
     FM281900 28023G33KT P6SM FEW120
     FM282300 31032G42KT P6SM FEW200
     FM290500 34011KT P6SM SKC
     FM290800 VRB05KT P6SM SKC=



000
FTUS45 KRIW 281700
TAFRKS
TAF
KRKS 281720Z 2818/2918 26011KT P6SM SKC
     FM281900 26017G27KT P6SM FEW120
     FM282100 27029G39KT P6SM FEW150
     FM290200 28020G28KT P6SM SKC
     FM290700 25008KT P6SM SKC=



000
FTUS45 KRIW 281700
TAFBPI
TAF
KBPI 281720Z 2818/2918 21008KT P6SM FEW110
     FM281900 27017G27KT P6SM FEW110
     FM282100 30021G31KT P6SM FEW150
     FM290230 34010KT P6SM SKC
     FM290700 VRB05KT P6SM SKC=



000
FTUS45 KRIW 281700
TAFCPR
TAF
KCPR 281720Z 2818/2918 22025G32KT P6SM SKC
     FM281900 25026G36KT P6SM FEW120
     FM282300 28024G34KT P6SM SCT110
     FM290500 34010KT P6SM SKC
     FM290800 24009KT P6SM SKC=



000
FTUS45 KRIW 281700
TAFJAC
TAF
KJAC 281720Z 2818/2918 20015G20KT P6SM FEW120
     FM281900 22020G28KT P6SM FEW080 SCT120
     FM290100 21011KT P6SM FEW120
     FM290500 36006KT P6SM SKC
     FM291700 23009KT P6SM SKC
      AMD LTD TO CLD VIS AND WIND=



000
FTUS45 KRIW 281700
TAFCOD
TAF
KCOD 281720Z 2818/2918 24012G20KT P6SM VCSH SCT090
     FM281930 27022G34KT P6SM FEW110
     FM290200 29010KT P6SM SKC
     FM290800 24007KT P6SM SKC
     FM291600 16011KT P6SM SKC
      AMD LTD TO CLD VIS AND WIND=



000
FTUS45 KRIW 281700
TAFCOD
TAF
KCOD 281720Z 2818/2918 24012G20KT P6SM VCSH SCT090
     FM281930 27022G34KT P6SM FEW110
     FM290200 29010KT P6SM SKC
     FM290800 24007KT P6SM SKC
     FM291600 16011KT P6SM SKC
      AMD LTD TO CLD VIS AND WIND=



000
FTUS45 KRIW 281700
TAFWRL
TAF
KWRL 281720Z 2818/2918 20008KT P6SM FEW110
     FM282100 30021G31KT P6SM SCT110
     FM290200 34011KT P6SM FEW120
     FM290700 VRB05KT P6SM SKC=



000
FTUS45 KRIW 281700
TAFWRL
TAF
KWRL 281720Z 2818/2918 20008KT P6SM FEW110
     FM282100 30021G31KT P6SM SCT110
     FM290200 34011KT P6SM FEW120
     FM290700 VRB05KT P6SM SKC=



000
FTUS45 KRIW 281700
TAFBPI
TAF
KBPI 281720Z 2818/2918 21008KT P6SM FEW110
     FM281900 27017G27KT P6SM FEW110
     FM282100 30021G31KT P6SM FEW150
     FM290230 34010KT P6SM SKC
     FM290700 VRB05KT P6SM SKC=



000
FTUS45 KRIW 281700
TAFLND
TAF
KLND 281720Z 2818/2918 29015G25KT P6SM SKC
     FM281900 27026G36KT P6SM FEW120
     FM290000 28017G27KT P6SM SKC
     FM290500 35010KT P6SM SKC
     FM290800 VRB05KT P6SM SKC=



000
FTUS45 KRIW 281100
TAFCOD
TAF
KCOD 281126Z 2812/2912 25014G24KT P6SM FEW120
     FM281700 23012G20KT P6SM VCSH SCT090
     FM281930 27022G34KT P6SM FEW110
     FM290200 29010KT P6SM SKC
     FM290800 24007KT P6SM SKC
      AMD LTD TO CLD VIS AND WIND=



000
FTUS45 KRIW 281100
TAFLND
TAF
KLND 281126Z 2812/2912 25008KT P6SM SKC
     FM281900 26026G36KT P6SM FEW120
     FM290000 28017G27KT P6SM SKC
     FM290500 35010KT P6SM SKC
     FM290800 VRB05KT P6SM SKC=



000
FTUS45 KRIW 281100
TAFJAC
TAF
KJAC 281126Z 2812/2912 36006KT P6SM SKC
     FM281300 18009KT P6SM FEW110
     FM281700 22020G28KT P6SM FEW080 SCT120
     FM290100 21011KT P6SM FEW120
     FM290500 36006KT P6SM SKC
      AMD LTD TO CLD VIS AND WIND=



000
FTUS45 KRIW 281100
TAFCPR
TAF
KCPR 281126Z 2812/2912 22015KT P6SM SKC
     FM281400 23016G26KT P6SM SKC
     FM281900 25026G36KT P6SM FEW120
     FM282300 28024G34KT P6SM SCT110
     FM290500 34010KT P6SM SKC
     FM290800 24007KT P6SM SKC=



000
FTUS45 KRIW 281100
TAFBPI
TAF
KBPI 281126Z 2812/2912 VRB05KT P6SM SKC
     FM281800 27017G27KT P6SM FEW110
     FM282100 30021G31KT P6SM FEW150
     FM290230 34010KT P6SM SKC
     FM290700 VRB05KT P6SM SKC=



000
FTUS45 KRIW 281100
TAFRIW
TAF
KRIW 281126Z 2812/2912 28010KT P6SM SKC
     FM281900 28023G33KT P6SM FEW120
     FM282300 31032G42KT P6SM FEW200
     FM290500 34011KT P6SM SKC
     FM290800 VRB05KT P6SM SKC=



000
FTUS45 KRIW 281100
TAFRKS
TAF
KRKS 281126Z 2812/2912 23006KT P6SM SKC
     FM281800 26017G27KT P6SM FEW120
     FM282100 27029G39KT P6SM FEW150
     FM290200 28020G28KT P6SM SKC
     FM290700 25008KT P6SM SKC=



000
FTUS45 KRIW 281100
TAFWRL
TAF
KWRL 281126Z 2812/2912 18008KT P6SM SKC
     FM281800 21011G19KT P6SM VCSH SCT090
     FM282100 30021G31KT P6SM SCT110
     FM290200 34011KT P6SM FEW120
     FM290700 VRB05KT P6SM SKC=



000
FTUS45 KRIW 280500
TAFLND
TAF
KLND 280520Z 2806/2906 25008KT P6SM SKC
     FM281900 26026G36KT P6SM FEW120
     FM290000 28017G27KT P6SM SKC
     FM290500 35010KT P6SM SKC=



000
FTUS45 KRIW 280500
TAFCPR
TAF
KCPR 280520Z 2806/2906 24009KT P6SM SKC
     FM281000 22012G18KT P6SM SKC
     FM281400 23016G26KT P6SM SKC
     FM281900 25026G36KT P6SM FEW120
     FM282300 28024G34KT P6SM SCT110
     FM290500 34010KT P6SM SKC=



000
FTUS45 KRIW 280500
TAFRKS
TAF
KRKS 280520Z 2806/2906 24006KT P6SM SKC
     FM281800 26017G27KT P6SM FEW120
     FM282100 27029G39KT P6SM FEW150
     FM290200 28020G28KT P6SM SKC=



000
FTUS45 KRIW 280500
TAFCOD
TAF
KCOD 280520Z 2806/2906 25014G24KT P6SM FEW120
     FM281700 23012G20KT P6SM VCSH SCT090
     FM281930 27022G34KT P6SM FEW110
     FM290200 29010KT P6SM SKC
      AMD LTD TO CLD VIS AND WIND=



000
FTUS45 KRIW 280500
TAFWRL
TAF
KWRL 280520Z 2806/2906 18008KT P6SM SKC
     FM281800 21011G19KT P6SM VCSH SCT090
     FM282100 30021G31KT P6SM SCT110
     FM290200 34011KT P6SM FEW120=



000
FTUS45 KRIW 280500
TAFBPI
TAF
KBPI 280520Z 2806/2906 VRB05KT P6SM SKC
     FM281800 27017G27KT P6SM FEW110
     FM282100 30021G31KT P6SM FEW150
     FM290230 34010KT P6SM SKC=



000
FTUS45 KRIW 280500
TAFCOD
TAF
KCOD 280520Z 2806/2906 25014G24KT P6SM FEW120
     FM281700 23012G20KT P6SM VCSH SCT090
     FM281930 27022G34KT P6SM FEW110
     FM290200 29010KT P6SM SKC
      AMD LTD TO CLD VIS AND WIND=



000
FTUS45 KRIW 280500
TAFJAC
TAF
KJAC 280520Z 2806/2906 36006KT P6SM SKC
     FM281300 18009KT P6SM FEW110
     FM281700 22020G28KT P6SM FEW080 SCT120
     FM290100 21011KT P6SM FEW120
     FM290500 36006KT P6SM SKC
      AMD LTD TO CLD VIS AND WIND=



000
FTUS45 KRIW 280500
TAFRIW
TAF
KRIW 280520Z 2806/2906 29013KT P6SM SKC
     FM281000 25007KT P6SM SKC
     FM281900 28023G33KT P6SM FEW120
     FM282300 31032G42KT P6SM FEW200
     FM290500 34011KT P6SM SKC=



000
FTUS45 KRIW 280500
TAFJAC
TAF
KJAC 280520Z 2806/2906 36006KT P6SM SKC
     FM281300 18009KT P6SM FEW110
     FM281700 22020G28KT P6SM FEW080 SCT120
     FM290100 21011KT P6SM FEW120
     FM290500 36006KT P6SM SKC
      AMD LTD TO CLD VIS AND WIND=



000
FTUS45 KRIW 280500
TAFWRL
TAF
KWRL 280520Z 2806/2906 18008KT P6SM SKC
     FM281800 21011G19KT P6SM VCSH SCT090
     FM282100 30021G31KT P6SM SCT110
     FM290200 34011KT P6SM FEW120=



000
FTUS45 KRIW 280500
TAFBPI
TAF
KBPI 280520Z 2806/2906 VRB05KT P6SM SKC
     FM281800 27017G27KT P6SM FEW110
     FM282100 30021G31KT P6SM FEW150
     FM290230 34010KT P6SM SKC=



000
FTUS45 KRIW 280500
TAFRIW
TAF
KRIW 280520Z 2806/2906 29013KT P6SM SKC
     FM281000 25007KT P6SM SKC
     FM281900 28023G33KT P6SM FEW120
     FM282300 31032G42KT P6SM FEW200
     FM290500 34011KT P6SM SKC=



000
FTUS45 KRIW 280500
TAFLND
TAF
KLND 280520Z 2806/2906 25008KT P6SM SKC
     FM281900 26026G36KT P6SM FEW120
     FM290000 28017G27KT P6SM SKC
     FM290500 35010KT P6SM SKC=



000
FTUS45 KRIW 280500
TAFRKS
TAF
KRKS 280520Z 2806/2906 24006KT P6SM SKC
     FM281800 26017G27KT P6SM FEW120
     FM282100 27029G39KT P6SM FEW150
     FM290200 28020G28KT P6SM SKC=



000
FTUS45 KRIW 280500
TAFCPR
TAF
KCPR 280520Z 2806/2906 24009KT P6SM SKC
     FM281000 22012G18KT P6SM SKC
     FM281400 23016G26KT P6SM SKC
     FM281900 25026G36KT P6SM FEW120
     FM282300 28024G34KT P6SM SCT110
     FM290500 34010KT P6SM SKC=



000
FTUS45 KRIW 272300
TAFCPR
TAF
KCPR 272324Z 2800/2824 29015G23KT P6SM SCT100
     FM280100 24009KT P6SM SKC
     FM281000 22012G18KT P6SM SKC
     FM281200 22015G25KT P6SM SCT250
     FM281800 23026G36KT P6SM SCT250=



000
FTUS45 KRIW 272300
TAFRIW
TAF
KRIW 272324Z 2800/2824 31020G28KT P6SM FEW110
     FM280300 30013KT P6SM SKC
     FM281000 25007KT P6SM SKC
     FM281800 29023G33KT P6SM SCT250
     FM282200 31032G42KT P6SM SCT250=



000
FTUS45 KRIW 272300
TAFBPI
TAF
KBPI 272324Z 2800/2824 35009KT P6SM FEW100
     FM280900 VRB05KT P6SM SKC
     FM281800 27017G27KT P6SM BKN250
     FM282100 29021G31KT P6SM BKN250=



000
FTUS45 KRIW 272300
TAFWRL
TAF
KWRL 272324Z 2800/2824 VRB04KT P6SM FEW110
     FM280300 18008KT P6SM SKC
     FM281500 15009KT P6SM SKC
     FM281900 32021G31KT P6SM SCT250=



000
FTUS45 KRIW 272300
TAFCOD
TAF
KCOD 272324Z 2800/2824 29010G18KT P6SM FEW110
     FM280300 25014G24KT P6SM SKC
     FM281500 24010KT P6SM SCT250
     FM281800 27020G30KT P6SM SCT250
      AMD LTD TO CLD VIS AND WIND=



000
FTUS45 KRIW 272300
TAFJAC
TAF
KJAC 272324Z 2800/2824 21008KT P6SM FEW060
     FM280200 VRB05KT P6SM SKC
     FM281200 18008KT P6SM SCT250
     FM281800 22014G24KT P6SM BKN250
      AMD LTD TO CLD VIS AND WIND=



000
FTUS45 KRIW 272300
TAFCOD
TAF
KCOD 272324Z 2800/2824 29010G18KT P6SM FEW110
     FM280300 25014G24KT P6SM SKC
     FM281500 24010KT P6SM SCT250
     FM281800 27020G30KT P6SM SCT250
      AMD LTD TO CLD VIS AND WIND=



000
FTUS45 KRIW 272300
TAFRIW
TAF
KRIW 272324Z 2800/2824 31020G28KT P6SM FEW110
     FM280300 30013KT P6SM SKC
     FM281000 25007KT P6SM SKC
     FM281800 29023G33KT P6SM SCT250
     FM282200 31032G42KT P6SM SCT250=



000
FTUS45 KRIW 272300
TAFWRL
TAF
KWRL 272324Z 2800/2824 VRB04KT P6SM FEW110
     FM280300 18008KT P6SM SKC
     FM281500 15009KT P6SM SKC
     FM281900 32021G31KT P6SM SCT250=



000
FTUS45 KRIW 272300
TAFRKS
TAF
KRKS 272324Z 2800/2824 28012G20KT P6SM SCT090
     FM280300 24008KT P6SM SKC
     FM281800 25017G27KT P6SM SCT250
     FM282100 26029G39KT P6SM BKN250=



000
FTUS45 KRIW 272300
TAFCPR
TAF
KCPR 272324Z 2800/2824 29015G23KT P6SM SCT100
     FM280100 24009KT P6SM SKC
     FM281000 22012G18KT P6SM SKC
     FM281200 22015G25KT P6SM SCT250
     FM281800 23026G36KT P6SM SCT250=



000
FTUS45 KRIW 272300
TAFJAC
TAF
KJAC 272324Z 2800/2824 21008KT P6SM FEW060
     FM280200 VRB05KT P6SM SKC
     FM281200 18008KT P6SM SCT250
     FM281800 22014G24KT P6SM BKN250
      AMD LTD TO CLD VIS AND WIND=



000
FTUS45 KRIW 272300
TAFBPI
TAF
KBPI 272324Z 2800/2824 35009KT P6SM FEW100
     FM280900 VRB05KT P6SM SKC
     FM281800 27017G27KT P6SM BKN250
     FM282100 29021G31KT P6SM BKN250=



000
FTUS45 KRIW 272300
TAFLND
TAF
KLND 272324Z 2800/2824 33011G17KT P6SM FEW110
     FM280300 25008KT P6SM SKC
     FM281900 26026G36KT P6SM SCT250=



000
FTUS45 KRIW 272300
TAFRKS
TAF
KRKS 272324Z 2800/2824 28012G20KT P6SM SCT090
     FM280300 24008KT P6SM SKC
     FM281800 25017G27KT P6SM SCT250
     FM282100 26029G39KT P6SM BKN250=



000
FTUS45 KRIW 272300
TAFLND
TAF
KLND 272324Z 2800/2824 33011G17KT P6SM FEW110
     FM280300 25008KT P6SM SKC
     FM281900 26026G36KT P6SM SCT250=



000
FTUS45 KRIW 272100 AAA
TAFRIW
TAF AMD
KRIW 272127Z 2721/2818 33020G30KT P6SM SKC
     FM280200 30013KT P6SM SKC
     FM280900 31004KT P6SM SKC
     FM281500 25007KT P6SM SKC=



000
FTUS45 KRIW 272100 AAA
TAFRIW
TAF AMD
KRIW 272127Z 2721/2818 33020G30KT P6SM SKC
     FM280200 30013KT P6SM SKC
     FM280900 31004KT P6SM SKC
     FM281500 25007KT P6SM SKC=



000
FTUS45 KRIW 272100 AAA
TAFCPR
TAF AMD
KCPR 272121Z 2721/2818 29020G30KT P6SM SCT100
     FM280100 23009KT P6SM SKC
     FM281000 22012G18KT P6SM SKC
     FM281200 22015G25KT P6SM SCT250=



000
FTUS45 KRIW 272100 AAA
TAFBPI
TAF AMD
KBPI 272120Z 2721/2818 01011G21KT P6SM SKC
     FM280200 34007KT P6SM SKC
     FM281500 24006KT P6SM SCT250=



000
FTUS45 KRIW 272100 AAA
TAFCOD
TAF AMD
KCOD 272120Z 2721/2818 25010G18KT P6SM SKC
     FM281500 24010KT P6SM SCT250
      AMD LTD TO CLD VIS AND WIND=



000
FTUS45 KRIW 271700
TAFCPR
TAF
KCPR 271720Z 2718/2818 28012G22KT P6SM SCT100
     FM280100 23009KT P6SM SKC
     FM281000 22012G18KT P6SM SKC
     FM281200 22015G25KT P6SM SCT250=



000
FTUS45 KRIW 271700
TAFJAC
TAF
KJAC 271720Z 2718/2818 VRB04KT P6SM SKC
     FM271900 18008KT P6SM SKC
      AMD LTD TO CLD VIS AND WIND=



000
FTUS45 KRIW 271700
TAFCOD
TAF
KCOD 271720Z 2718/2818 25015G27KT P6SM SKC
     FM281500 24010KT P6SM SCT250
      AMD LTD TO CLD VIS AND WIND=



000
FTUS45 KRIW 271700
TAFRIW
TAF
KRIW 271720Z 2718/2818 VRB04KT P6SM SKC
     FM280200 30013KT P6SM SKC
     FM280900 31004KT P6SM SKC
     FM281500 25007KT P6SM SKC=



000
FTUS45 KRIW 271700
TAFLND
TAF
KLND 271720Z 2718/2818 11006KT P6SM SKC
     FM280300 25008KT P6SM SKC=



000
FTUS45 KRIW 271700
TAFRKS
TAF
KRKS 271720Z 2718/2818 27012KT P6SM SKC
     FM271900 28015G25KT P6SM SKC
     FM280300 24008KT P6SM SKC=



000
FTUS45 KRIW 271700
TAFWRL
TAF
KWRL 271720Z 2718/2818 VRB04KT P6SM SKC
     FM280300 18008KT P6SM SKC
     FM281500 15009KT P6SM SKC=



000
FTUS45 KRIW 271700
TAFBPI
TAF
KBPI 271720Z 2718/2818 VRB05KT P6SM SKC
     FM272000 32012G18KT P6SM SKC
     FM280200 34007KT P6SM SKC
     FM281500 24006KT P6SM SCT250=



000
FTUS45 KRIW 271300 CCA
TAFCOD
TAF COR
KCOD 271325Z 2713/2812 01006KT P6SM SKC
     FM271500 28007KT P6SM SKC
     FM280400 25015G27KT P6SM SKC
      AMD LTD TO CLD VIS AND WIND=



000
FTUS45 KRIW 271300 CCA
TAFCOD
TAF COR
KCOD 271325Z 2713/2812 01006KT P6SM SKC
     FM271500 28007KT P6SM SKC
     FM280400 25015G27KT P6SM SKC
      AMD LTD TO CLD VIS AND WIND=



000
FTUS45 KRIW 271300 AAA
TAFCOD
TAF AMD
KCOD 271324Z 2713/2812 01006G23KT P6SM SKC
     FM271500 28007KT P6SM SKC
     FM280400 25015G27KT P6SM SKC
      AMD LTD TO CLD VIS AND WIND=



000
FTUS45 KRIW 271100
TAFBPI
TAF
KBPI 271122Z 2712/2812 VRB05KT P6SM SKC
     FM272000 32012G18KT P6SM SKC
     FM280200 34007KT P6SM SKC=



000
FTUS45 KRIW 271100
TAFWRL
TAF
KWRL 271122Z 2712/2812 17007KT P6SM SKC
     FM271500 VRB04KT P6SM SKC
     FM280300 18008KT P6SM SKC=



000
FTUS45 KRIW 271100
TAFJAC
TAF
KJAC 271122Z 2712/2812 36006KT P6SM SKC
     FM271700 18008KT P6SM SKC
      AMD LTD TO CLD VIS AND WIND=



000
FTUS45 KRIW 271100
TAFLND
TAF
KLND 271122Z 2712/2812 VRB05KT P6SM SKC
     FM280300 25008KT P6SM SKC=



000
FTUS45 KRIW 271100
TAFCOD
TAF
KCOD 271122Z 2712/2812 27015G23KT P6SM SKC
     FM271500 28007KT P6SM SKC
     FM280400 25015G27KT P6SM SKC
      AMD LTD TO CLD VIS AND WIND=



000
FTUS45 KRIW 271100
TAFRKS
TAF
KRKS 271122Z 2712/2812 25015KT P6SM SKC
     FM271700 28015G25KT P6SM SKC
     FM280300 24008KT P6SM SKC=



000
FTUS45 KRIW 271100
TAFCPR
TAF
KCPR 271122Z 2712/2812 24009KT P6SM BKN070
     FM271400 24012KT P6SM SCT090
     FM271900 28013G20KT P6SM SKC
     FM280100 23009KT P6SM SKC
     FM281000 22012G18KT P6SM SKC=



000
FTUS45 KRIW 271100
TAFRIW
TAF
KRIW 271122Z 2712/2812 31015G23KT P6SM FEW200
     FM271500 28007KT P6SM SKC
     FM280200 30013KT P6SM SKC=



000
FTUS45 KRIW 270500
TAFLND
TAF
KLND 270520Z 2706/2806 25007KT P6SM FEW200
     FM271400 VRB05KT P6SM SKC
     FM280300 25008KT P6SM SKC=



000
FTUS45 KRIW 270500
TAFWRL
TAF
KWRL 270520Z 2706/2806 17005KT P6SM FEW090 SCT250
     FM271500 VRB04KT P6SM SKC
     FM280300 18008KT P6SM SKC=



000
FTUS45 KRIW 270500
TAFRIW
TAF
KRIW 270520Z 2706/2806 31015G23KT P6SM FEW200
     FM271500 28007KT P6SM SKC
     FM280200 30013KT P6SM SKC=



000
FTUS45 KRIW 270500
TAFJAC
TAF
KJAC 270520Z 2706/2806 36006KT P6SM SCT060
     FM271700 18008KT P6SM SKC
      AMD LTD TO CLD VIS AND WIND=



000
FTUS45 KRIW 270500
TAFRKS
TAF
KRKS 270520Z 2706/2806 27015KT P6SM FEW200
     FM271700 28015G25KT P6SM SKC
     FM280300 24008KT P6SM SKC=



000
FTUS45 KRIW 270500
TAFCOD
TAF
KCOD 270520Z 2706/2806 27015G23KT P6SM SCT090
     FM271500 28007KT P6SM SKC
     FM280400 25015G27KT P6SM SKC
      AMD LTD TO CLD VIS AND WIND=



000
FTUS45 KRIW 270500
TAFJAC
TAF
KJAC 270520Z 2706/2806 36006KT P6SM SCT060
     FM271700 18008KT P6SM SKC
      AMD LTD TO CLD VIS AND WIND=



000
FTUS45 KRIW 270500
TAFLND
TAF
KLND 270520Z 2706/2806 25007KT P6SM FEW200
     FM271400 VRB05KT P6SM SKC
     FM280300 25008KT P6SM SKC=



000
FTUS45 KRIW 270500
TAFCPR
TAF
KCPR 270520Z 2706/2806 24009KT P6SM BKN070
     FM271300 24012KT P6SM SCT090
     FM271900 28013G20KT P6SM SKC
     FM280100 23009KT P6SM SKC=



000
FTUS45 KRIW 270500
TAFBPI
TAF
KBPI 270520Z 2706/2806 33007KT P6SM FEW200
     FM272000 32012G18KT P6SM SKC
     FM280200 34007KT P6SM SKC=



000
FTUS45 KRIW 270500
TAFRKS
TAF
KRKS 270520Z 2706/2806 27015KT P6SM FEW200
     FM271700 28015G25KT P6SM SKC
     FM280300 24008KT P6SM SKC=



000
FTUS45 KRIW 270500
TAFBPI
TAF
KBPI 270520Z 2706/2806 33007KT P6SM FEW200
     FM272000 32012G18KT P6SM SKC
     FM280200 34007KT P6SM SKC=



000
FTUS45 KRIW 270500
TAFCOD
TAF
KCOD 270520Z 2706/2806 27015G23KT P6SM SCT090
     FM271500 28007KT P6SM SKC
     FM280400 25015G27KT P6SM SKC
      AMD LTD TO CLD VIS AND WIND=



000
FTUS45 KRIW 270500
TAFRIW
TAF
KRIW 270520Z 2706/2806 31015G23KT P6SM FEW200
     FM271500 28007KT P6SM SKC
     FM280200 30013KT P6SM SKC=



000
FTUS45 KRIW 270500
TAFCPR
TAF
KCPR 270520Z 2706/2806 24009KT P6SM BKN070
     FM271300 24012KT P6SM SCT090
     FM271900 28013G20KT P6SM SKC
     FM280100 23009KT P6SM SKC=



000
FTUS45 KRIW 270500
TAFWRL
TAF
KWRL 270520Z 2706/2806 17005KT P6SM FEW090 SCT250
     FM271500 VRB04KT P6SM SKC
     FM280300 18008KT P6SM SKC=



000
FTUS45 KRIW 262300
TAFWRL
TAF
KWRL 262323Z 2700/2724 35008KT P6SM SCT070
     FM270200 16005KT P6SM FEW090 SCT250
     FM271500 VRB04KT P6SM SKC=



000
FTUS45 KRIW 262300
TAFBPI
TAF
KBPI 262323Z 2700/2724 33016G24KT P6SM FEW070 SCT200
     FM270200 35009KT P6SM FEW200
     FM272000 30012G18KT P6SM SKC=



000
FTUS45 KRIW 262300
TAFLND
TAF
KLND 262323Z 2700/2724 34011G17KT P6SM SCT250
     FM270200 26005KT P6SM SCT250
     FM271600 VRB05KT P6SM SKC=



000
FTUS45 KRIW 262300
TAFJAC
TAF
KJAC 262323Z 2700/2724 VRB05KT P6SM SCT050 BKN200
     FM270300 36006KT P6SM FEW060
     FM271700 17007KT P6SM SKC
      AMD LTD TO CLD VIS AND WIND=



000
FTUS45 KRIW 262300
TAFCOD
TAF
KCOD 262323Z 2700/2724 28013G21KT P6SM SCT070
     FM270300 27014G22KT P6SM SCT120
     FM271500 25007KT P6SM SKC
      AMD LTD TO CLD VIS AND WIND=



000
FTUS45 KRIW 262300
TAFRKS
TAF
KRKS 262323Z 2700/2724 28017G25KT P6SM FEW200
     FM270300 27014KT P6SM SKC
     FM271700 27015G25KT P6SM SKC=



000
FTUS45 KRIW 262300
TAFRIW
TAF
KRIW 262323Z 2700/2724 VRB06KT P6SM FEW080 SCT250
     FM270100 31013G21KT P6SM FEW200
     FM271500 30008KT P6SM SKC=



000
FTUS45 KRIW 262300
TAFCPR
TAF
KCPR 262323Z 2700/2724 28011KT P6SM BKN070
     FM270200 26009KT P6SM FEW110
     FM270700 24012KT P6SM SKC
     FM271900 28013G20KT P6SM SKC=



000
FTUS45 KRIW 262000 AAA
TAFCOD
TAF AMD
KCOD 262051Z 2621/2718 26012G18KT P6SM SCT070 BKN090
     FM270300 25014G22KT P6SM SCT120
     FM271500 25007KT P6SM SKC
      AMD LTD TO CLD VIS AND WIND=



000
FTUS45 KRIW 262000 AAA
TAFRIW
TAF AMD
KRIW 262014Z 2620/2718 VRB06KT P6SM FEW080 SCT250
     FM262200 31018G28KT P6SM FEW080 SCT250
     FM270300 31014KT P6SM FEW200
     FM270700 30008KT P6SM SKC=



000
FTUS45 KRIW 262000 AAA
TAFRIW
TAF AMD
KRIW 262014Z 2620/2718 VRB06KT P6SM FEW080 SCT250
     FM262200 31018G28KT P6SM FEW080 SCT250
     FM270300 31014KT P6SM FEW200
     FM270700 30008KT P6SM SKC=



000
FTUS45 KRIW 261900 AAA
TAFLND
TAF AMD
KLND 261902Z 2619/2718 13008KT P6SM FEW080 SCT250 WS020/29025KT
     FM262100 30011G17KT P6SM SCT250
     FM270300 26005KT P6SM SCT250
     FM271600 VRB05KT P6SM SKC=



000
FTUS45 KRIW 261700
TAFRKS
TAF
KRKS 261722Z 2618/2718 28024G32KT P6SM FEW200
     FM270300 28016KT P6SM SKC
     FM270700 27010KT P6SM SKC=



000
FTUS45 KRIW 261700
TAFWRL
TAF
KWRL 261722Z 2618/2718 VRB05KT P6SM BKN070
     FM270100 16005KT P6SM SCT250
     FM271500 VRB04KT P6SM SKC=



000
FTUS45 KRIW 261700
TAFCOD
TAF
KCOD 261722Z 2618/2718 29012G18KT P6SM SCT070 BKN250
     FM270300 25014G22KT P6SM SCT120
     FM271500 25007KT P6SM SKC
      AMD LTD TO CLD VIS AND WIND=



000
FTUS45 KRIW 261700
TAFCPR
TAF
KCPR 261722Z 2618/2718 29016G24KT P6SM BKN070
     FM270200 29012KT P6SM FEW110
     FM270700 25007KT P6SM SKC
     FM271700 24013G20KT P6SM SKC=



000
FTUS45 KRIW 261700
TAFBPI
TAF
KBPI 261722Z 2618/2718 33015G23KT P6SM FEW070 SCT200
     FM270200 35009KT P6SM FEW200=



000
FTUS45 KRIW 261700
TAFLND
TAF
KLND 261722Z 2618/2718 13008KT P6SM FEW080 SCT250
     FM262100 30011G17KT P6SM SCT250
     FM270300 26005KT P6SM SCT250
     FM271600 VRB05KT P6SM SKC=



000
FTUS45 KRIW 261700
TAFJAC
TAF
KJAC 261722Z 2618/2718 18010KT P6SM SCT060 SCT200
     FM270300 VRB05KT P6SM FEW080
     FM270700 36005KT P6SM SKC
     FM271700 17007KT P6SM SKC
      AMD LTD TO CLD VIS AND WIND=



000
FTUS45 KRIW 261700
TAFRIW
TAF
KRIW 261722Z 2618/2718 VRB06KT P6SM FEW080 SCT250
     FM262000 31018G28KT P6SM FEW080 SCT250
     FM270300 31014KT P6SM FEW200
     FM270700 30008KT P6SM SKC=



000
FTUS45 KRIW 261700
TAFCPR
TAF
KCPR 261722Z 2618/2718 29016G24KT P6SM BKN070
     FM270200 29012KT P6SM FEW110
     FM270700 25007KT P6SM SKC
     FM271700 24013G20KT P6SM SKC=



000
FTUS45 KRIW 261700
TAFBPI
TAF
KBPI 261722Z 2618/2718 33015G23KT P6SM FEW070 SCT200
     FM270200 35009KT P6SM FEW200=



000
FTUS45 KRIW 261700
TAFJAC
TAF
KJAC 261722Z 2618/2718 18010KT P6SM SCT060 SCT200
     FM270300 VRB05KT P6SM FEW080
     FM270700 36005KT P6SM SKC
     FM271700 17007KT P6SM SKC
      AMD LTD TO CLD VIS AND WIND=



000
FTUS45 KRIW 261700
TAFWRL
TAF
KWRL 261722Z 2618/2718 VRB05KT P6SM BKN070
     FM270100 16005KT P6SM SCT250
     FM271500 VRB04KT P6SM SKC=



000
FTUS45 KRIW 261700
TAFRKS
TAF
KRKS 261722Z 2618/2718 28024G32KT P6SM FEW200
     FM270300 28016KT P6SM SKC
     FM270700 27010KT P6SM SKC=



000
FTUS45 KRIW 261700
TAFLND
TAF
KLND 261722Z 2618/2718 13008KT P6SM FEW080 SCT250
     FM262100 30011G17KT P6SM SCT250
     FM270300 26005KT P6SM SCT250
     FM271600 VRB05KT P6SM SKC=



000
FTUS45 KRIW 261700
TAFRIW
TAF
KRIW 261722Z 2618/2718 VRB06KT P6SM FEW080 SCT250
     FM262000 31018G28KT P6SM FEW080 SCT250
     FM270300 31014KT P6SM FEW200
     FM270700 30008KT P6SM SKC=



000
FTUS45 KRIW 261700
TAFCOD
TAF
KCOD 261722Z 2618/2718 29012G18KT P6SM SCT070 BKN250
     FM270300 25014G22KT P6SM SCT120
     FM271500 25007KT P6SM SKC
      AMD LTD TO CLD VIS AND WIND=



    US Dept of Commerce
    National Oceanic and Atmospheric Administration
    National Weather Service
    1325 East West Highway
    Silver Spring, MD 20910
    Page Author: NWS Internet Services Team
Disclaimer
Information Quality
Credits
Glossary
Privacy Policy
Freedom of Information Act (FOIA)
About Us
Career Opportunities